Airfield :
LOGIN :

Register | Disclaimer

   EN    FR    IT 

 










Legend :    VFR   Marginal VFR   IFR   Intensive IFR   Very Intensive IFR
Visi :
Ceiling :
>= 8 km
>= 3000ft
5 to 8 km
1000 to 3000 ft
1500m to 5 km
500 to 1000 ft
800 to 1500m
200 to 500 ft
< 800m
< 200 ft
Symbols :   Thunderstorms  Fog  Heavy snow  Heavy precipitations  Wind > 20 kt
SIGMETs :     Misc.  Thunderstorms  Icing  Turbulence  Mountain Waves  Volcanic Ashes






- Airport Elevation : 137 ft
- IATA code : ARN


ESSA - Stockholm-Arlanda

CURRENT METAR :
  • 251250Z 08015KT 9999 FEW026 03/M03 Q0993 R01L/09//95 R08/09//95 R01R/09//95 NOSIG

EXPIRED METARs :
  • 251220Z 08016KT 9999 SCT038 03/M03 Q0993 R01L/09//95 R08/09//95 R01R/09//95 NOSIG
  • 251150Z 08015KT 9999 FEW029 03/M03 Q0993 R01L/09//95 R08/09//95 R01R/09//95 NOSIG
  • 251120Z 08015KT 9999 SCT027 03/M03 Q0994 R01L/09//95 R08/09//95 R01R/09//95 NOSIG
  • 251050Z 08015KT 9999 SCT025 03/M03 Q0994 R01L/09//95 R08/09//95 R01R/09//95 NOSIG
  • 251020Z 08014KT 9999 SCT023 03/M02 Q0994 R01L/09//95 R08/09//95 R01R/09//95 NOSIG

TAF TAF ESSA
Valid from the 25 at 12:00 until the 26 at 12:00 UTC


251130Z 2512/2612 09015KT 9999 SCT025
PROB40 2513/2521 4000 -SHSNRA BKN025TCU
BECMG 2604/2606 05015G25KT



MET'MAP, your aeronautical weather chart ! - Copyright ORBIFLY December 2007 - Disclaimer

ORBIFLY MET'MAP TEAM :

Programming & Development : Alexandra Zaïnal
Concept & original design : Baudouin d'Aumeries
Assistance for programming : Marc-Olivier Méhu
Technical & hardware support : Manuel Goepfert

Contact : metmap@orbifly.com




SOURCES & CREDITS :

   NOAA